Teuge International Airport

EHTE · Gelderland, 荷兰

METAR的历史 EHTE · Teuge International Airport

下面你可以看到过去几天的METARs。 选择年份以浏览从2007年开始的旧METAR。

2024年4月23日

时间 代码 天气 温度 能见度 天花板 METAR/SPECI
03:25
V
0 °C 10 km+ 29.000 ft Var Var 1 kt METAR EHDL 230125Z AUTO VRB01KT 9999 BKN290 00/M01 Q1023 BLU
02:55
V
1 °C 10 km+ 18.000 ft 300° 300° 3 kt METAR EHDL 230055Z AUTO 30003KT 330V050 9999 BKN180 OVC300 01/M01 Q1023 BLU
02:25
V
1 °C 10 km+ 19.000 ft Var Var 2 kt METAR EHDL 230025Z AUTO VRB02KT 9999 OVC190 01/M01 Q1023 BLU
01:55
V
1 °C 10 km+ 19.000 ft 330° 330° 3 kt METAR EHDL 222355Z AUTO 33003KT 350V050 9999 OVC190 01/M01 Q1023 BLU
01:25
V
1 °C 10 km+ 22.000 ft 030° 030° 7 kt METAR EHDL 222325Z AUTO 03007KT 330V100 9999 OVC220 01/M01 Q1023 BLU
00:55
V
1 °C 10 km+ 27.000 ft 020° 020° 7 kt METAR EHDL 222255Z AUTO 02007KT 340V080 9999 OVC270 01/M01 Q1023 BLU
00:25
V
2 °C 10 km+ 26.000 ft 010° 010° 6 kt METAR EHDL 222225Z AUTO 01006KT 330V060 9999 OVC260 02/M01 Q1023 BLU

2024年4月22日

时间 代码 天气 温度 能见度 天花板 METAR/SPECI
23:55
V
3 °C 10 km+ 26.000 ft 360° 360° 6 kt METAR EHDL 222155Z AUTO 36006KT 340V040 9999 OVC260 03/M02 Q1023 BLU
23:25
V
3 °C 10 km+ 22.000 ft 360° 360° 7 kt METAR EHDL 222125Z AUTO 36007KT 320V040 9999 OVC220 03/M02 Q1023 BLU
22:55
V
3 °C 10 km+ 21.000 ft 340° 340° 6 kt METAR EHDL 222055Z AUTO 34006KT 310V050 9999 OVC210 03/M03 Q1023 BLU
22:25
V
3 °C 10 km+ - 010° 010° 7 kt METAR EHDL 222025Z AUTO 01007KT 310V060 9999 FEW220 03/M03 Q1023 BLU
21:55
V
4 °C 10 km+ - 350° 350° 6 kt METAR EHDL 221955Z AUTO 35006KT 9999 SCT240 04/M04 Q1023 BLU
21:25
V
4 °C 10 km+ 21.000 ft 360° 360° 6 kt METAR EHDL 221925Z AUTO 36006KT 330V030 9999 OVC210 04/M05 Q1023 BLU
20:55
V
5 °C 10 km+ 25.000 ft 350° 350° 8 kt METAR EHDL 221855Z AUTO 35008KT 270V040 9999 OVC250 05/M05 Q1023 BLU
20:25
V
7 °C 10 km+ - 360° 360° 11 kt METAR EHDL 221825Z AUTO 36011KT 320V050 9999 NCD 07/M06 Q1023 BLU
19:55
V
7 °C 10 km+ - 360° 360° 12 kt METAR EHDL 221755Z AUTO 36012KT 300V040 9999 NCD 07/M07 Q1023 BLU
19:25
V
8 °C 10 km+ - 020° 020° 12 kt METAR EHDL 221725Z AUTO 02012KT 320V090 9999 NCD 08/M06 Q1023 BLU
18:55
V
8 °C 10 km+ - 030° 030° 13 kt METAR EHDL 221655Z AUTO 03013KT 9999 NCD 08/M07 Q1023 BLU
18:25
V
9 °C 10 km+ - 030° 030° 13 kt METAR EHDL 221625Z AUTO 03013KT 320V120 9999 FEW060 09/M06 Q1023 BLU
17:55
V
8 °C 10 km+ 6.200 ft 360° 360° 12 kt METAR EHDL 221555Z AUTO 36012KT 300V050 9999 SCT050 BKN062 OVC068 08/M04 Q1023 BLU
17:25
V
8 °C 10 km+ 7.500 ft 020° 020° 10 kt METAR EHDL 221525Z AUTO 02010KT 280V070 9999 FEW050 SCT069 OVC075 08/M03 Q1023 BLU
16:55
V
9 °C 10 km+ 6.700 ft 020° 020° 13 kt METAR EHDL 221455Z AUTO 02013KT 320V120 9999 SCT049 BKN067 BKN073 09/M02 Q1023 BLU
16:25
V
9 °C 10 km+ 7.400 ft 040° 040° 13 kt METAR EHDL 221425Z AUTO 04013KT 9999 SCT069 OVC074 09/M03 Q1023 BLU
15:55
V
9 °C 10 km+ 5.400 ft 030° 030° 14 kt METAR EHDL 221355Z AUTO 03014KT 320V100 9999 FEW046 BKN054 OVC060 09/M03 Q1023 BLU
15:25
V
10 °C 10 km+ 6.300 ft 030° 030° 10 kt METAR EHDL 221325Z AUTO 03010KT 9999 FEW048 SCT057 BKN063 10/M04 Q1023 BLU
14:55
V
10 °C 10 km+ 6.200 ft 050° 050° 15 kt METAR EHDL 221255Z AUTO 05015KT 320V090 9999 SCT052 BKN062 BKN070 10/M03 Q1024 BLU
14:25
V
9 °C 10 km+ 5.000 ft 020° 020° 12 kt METAR EHDL 221225Z AUTO 02012KT 300V070 9999 FEW045 BKN050 OVC057 09/M03 Q1024 BLU
13:55
V
8 °C 10 km+ 4.700 ft 020° 020° 13 kt METAR EHDL 221155Z AUTO 02013KT 330V070 9999 SCT042 BKN047 BKN055 08/M02 Q1024 BLU
13:25
V
9 °C 10 km+ 7.500 ft 020° 020° 11 kt METAR EHDL 221125Z AUTO 02011KT 300V100 9999 FEW059 SCT068 BKN075 09/M00 Q1024 BLU
12:55
V
9 °C 10 km+ 5.500 ft 020° 020° 9 kt METAR EHDL 221055Z AUTO 02009KT 310V060 9999 FEW035 SCT041 BKN055 09/00 Q1024 BLU
12:25
V
9 °C 10 km+ 6.200 ft 030° 030° 9 kt METAR EHDL 221025Z AUTO 03009KT 9999 FEW030CB SCT056 BKN062 09/01 Q1024 BLU
11:55
V
8 °C 10 km+ 5.500 ft 020° 020° 8 kt METAR EHDL 220955Z AUTO 02008KT 9999 FEW031 SCT046 BKN055 08/02 Q1025 BLU
11:25
M
8 °C 10 km+ 2.600 ft 020° 020° 2 kt METAR EHDL 220925Z AUTO 02002KT 9999 BKN026 OVC100 08/02 Q1025 BLU
10:55
V
8 °C 10 km+ 6.100 ft Var Var 2 kt METAR EHDL 220855Z AUTO VRB02KT 9999 FEW026 BKN061 BKN067 08/02 Q1025 BLU
10:25
V
7 °C 10 km+ 7.000 ft 360° 360° 4 kt METAR EHDL 220825Z AUTO 36004KT 290V030 9999 BKN070 OVC075 07/02 Q1025 BLU
09:55
V
6 °C 10 km+ 12.000 ft 310° 310° 3 kt METAR EHDL 220755Z AUTO 31003KT 260V020 9999 OVC120 06/02 Q1025 BLU
09:25
V
5 °C 10 km+ 6.200 ft Var Var 2 kt METAR EHDL 220725Z AUTO VRB02KT 9999 BKN062 OVC120 05/02 Q1025 BLU
08:55
V
4 °C 10 km+ 13.000 ft Var Var 1 kt METAR EHDL 220655Z AUTO VRB01KT 9999 OVC130 04/02 Q1025 BLU
08:25
V
1 °C 10 km+ 14.000 ft 310° 310° 1 kt METAR EHDL 220625Z AUTO 31001KT 9999 OVC140 01/01 Q1025 BLU
07:55
V
0 °C 10 km+ 15.000 ft Var Var 1 kt METAR EHDL 220555Z AUTO VRB01KT 9999 FEW058 SCT064 OVC150 00/M01 Q1025 BLU
07:25
V
-1 °C 10 km+ 16.000 ft 010° 010° 1 kt METAR EHDL 220525Z AUTO 01001KT 9999 OVC160 M01/M02 Q1026 BLU
06:55
V
-1 °C 10 km+ 16.000 ft 110° 110° 1 kt METAR EHDL 220455Z AUTO 11001KT 9999 OVC160 M01/M01 Q1025 BLU
06:25
V
-1 °C 10 km+ 15.000 ft 220° 220° 1 kt METAR EHDL 220425Z AUTO 22001KT 9999 OVC150 M01/M02 Q1026 BLU
05:55
V
-1 °C 10 km+ 16.000 ft 330° 330° 2 kt METAR EHDL 220355Z AUTO 33002KT 9999 OVC160 M01/M01 Q1026 BLU
05:25
V
0 °C 10 km+ 7.300 ft 350° 350° 2 kt METAR EHDL 220325Z AUTO 35002KT 9999 BKN073 BKN081 OVC160 00/M01 Q1026 BLU
04:55
V
0 °C 10 km+ 6.100 ft 340° 340° 2 kt METAR EHDL 220255Z AUTO 34002KT 9999 BKN061 OVC066 M00/M01 Q1026 BLU
04:25
V
1 °C 10 km+ 6.200 ft 300° 300° 2 kt METAR EHDL 220225Z AUTO 30002KT 9999 BKN062 BKN078 OVC160 01/M01 Q1026 BLU
03:55
V
2 °C 10 km+ 7.700 ft 340° 340° 1 kt METAR EHDL 220155Z AUTO 34001KT 9999 BKN077 OVC083 02/01 Q1026 BLU
03:25
V
2 °C 10 km+ 7.500 ft 350° 350° 3 kt METAR EHDL 220125Z AUTO 35003KT 9999 SCT070 OVC075 02/01 Q1026 BLU
02:55
V
2 °C 10 km+ 7.300 ft 340° 340° 3 kt METAR EHDL 220055Z AUTO 34003KT 9999 BKN073 OVC078 02/01 Q1026 BLU
02:25
V
3 °C 10 km+ 17.000 ft 340° 340° 5 kt METAR EHDL 220025Z AUTO 34005KT 9999 OVC170 03/01 Q1027 BLU
01:55
V
3 °C 10 km+ 7.700 ft 360° 360° 4 kt METAR EHDL 212355Z AUTO 36004KT 9999 BKN077 OVC130 03/01 Q1027 BLU
01:25
V
3 °C 10 km+ 7.400 ft 340° 340° 5 kt METAR EHDL 212325Z AUTO 34005KT 9999 FEW068 BKN074 OVC083 03/01 Q1027 BLU
00:55
V
3 °C 10 km+ 6.200 ft 340° 340° 4 kt METAR EHDL 212255Z AUTO 34004KT 9999 FEW046 SCT050 BKN062 03/01 Q1027 BLU
00:25
V
3 °C 10 km+ 6.300 ft 320° 320° 4 kt METAR EHDL 212225Z AUTO 32004KT 9999 FEW057 BKN063 OVC068 03/01 Q1027 BLU

2024年4月21日

时间 代码 天气 温度 能见度 天花板 METAR/SPECI
23:55
V
4 °C 10 km+ 6.400 ft 360° 360° 6 kt METAR EHDL 212155Z AUTO 36006KT 320V050 9999 SCT058 OVC064 04/01 Q1027 BLU
23:25
V
5 °C 10 km+ 8.000 ft 020° 020° 8 kt METAR EHDL 212125Z AUTO 02008KT 320V090 9999 SCT065 SCT072 OVC080 05/01 Q1027 BLU
22:55
V
5 °C 10 km+ - 010° 010° 7 kt METAR EHDL 212055Z AUTO 01007KT 330V050 9999 FEW068 05/01 Q1027 BLU
22:25
V
5 °C 10 km+ - 020° 020° 8 kt METAR EHDL 212025Z AUTO 02008KT 340V080 9999 FEW070 05/01 Q1027 BLU
21:55
V
5 °C 10 km+ - 020° 020° 8 kt METAR EHDL 211955Z AUTO 02008KT 340V070 9999 NCD 05/01 Q1027 BLU
21:25
V
6 °C 10 km+ - 010° 010° 8 kt METAR EHDL 211925Z AUTO 01008KT 320V070 9999 NCD 06/01 Q1026 BLU
20:55
V
7 °C 10 km+ 6.700 ft 020° 020° 9 kt METAR EHDL 211855Z AUTO 02009KT 320V060 9999 SCT061 OVC067 07/01 Q1026 BLU
20:25
V
7 °C 10 km+ 7.000 ft 010° 010° 10 kt METAR EHDL 211825Z AUTO 01010KT 310V060 9999 FEW050 SCT059 BKN070 07/01 Q1026 BLU
19:55
V
8 °C 10 km+ - 360° 360° 7 kt METAR EHDL 211755Z AUTO 36007KT 320V040 9999 FEW068 08/01 Q1026 BLU
19:25
V
8 °C 10 km+ 16.000 ft 010° 010° 9 kt METAR EHDL 211725Z AUTO 01009KT 310V050 9999 FEW062 SCT071 BKN160 08/01 Q1025 BLU
18:55
V
8 °C 10 km+ 3.300 ft 020° 020° 11 kt METAR EHDL 211655Z AUTO 02011KT 310V060 9999 BKN033 BKN049 BKN057 08/02 Q1025 BLU
18:25
V
8 °C 10 km+ 7.800 ft 360° 360° 11 kt METAR EHDL 211625Z AUTO 36011KT 320V080 9999 BKN078 OVC084 08/02 Q1025 BLU
17:55
V
9 °C 10 km+ 9.600 ft 010° 010° 11 kt METAR EHDL 211555Z AUTO 01011KT 280V050 9999 SCT091 BKN096 BKN110 09/04 Q1025 BLU
17:25
V
7 °C 10 km+ 7.100 ft 020° 020° 8 kt METAR EHDL 211525Z AUTO 02008KT 310V060 9999 FEW016CB SCT065 OVC071 07/03 Q1025 BLU
16:55
V
6 °C 10 km+ 5.400 ft 340° 340° 8 kt METAR EHDL 211455Z AUTO 34008KT 300V060 9999 -UP FEW015CB SCT049 BKN054 06/04 Q1025 BLU
16:25
V
8 °C 10 km+ 3.700 ft 040° 040° 17 kt METAR EHDL 211425Z AUTO 04017KT 9999 FEW026CB BKN037 OVC042 08/01 Q1025 BLU
15:55
V
10 °C 10 km+ - 360° 360° 11 kt METAR EHDL 211355Z AUTO 36011KT 290V100 9999 FEW042 SCT066 10/01 Q1025 BLU
15:25
V
10 °C 10 km+ - 360° 360° 12 kt METAR EHDL 211325Z AUTO 36012KT 300V060 9999 FEW034CB 10/02 Q1025 BLU
14:55
V
9 °C 10 km+ 6.600 ft 010° 010° 10 kt METAR EHDL 211255Z AUTO 01010KT 310V110 9999 FEW048 SCT059 BKN066 09/00 Q1025 BLU
14:25
V
10 °C 10 km+ 6.800 ft 050° 050° 10 kt METAR EHDL 211225Z AUTO 05010KT 330V130 9999 FEW063 BKN068 OVC074 10/01 Q1025 BLU
13:55
V
10 °C 10 km+ - 070° 070° 9 kt METAR EHDL 211155Z AUTO 07009KT 9999 FEW047 SCT051 10/01 Q1025 BLU
13:25
V
9 °C 10 km+ 3.300 ft 050° 050° 9 kt METAR EHDL 211125Z AUTO 05009KT 330V140 9999 BKN033 BKN047 09/01 Q1025 BLU
12:55
V
9 °C 10 km+ 3.200 ft 030° 030° 13 kt METAR EHDL 211055Z AUTO 03013KT 340V130 9999 BKN032 BKN039 BKN045 09/02 Q1025 BLU
12:25
M
9 °C 10 km+ 2.800 ft 050° 050° 12 kt METAR EHDL 211025Z AUTO 05012KT 340V130 9999 BKN028 09/01 Q1025 BLU
11:55
V
8 °C 10 km+ - 050° 050° 9 kt METAR EHDL 210955Z AUTO 05009KT 300V110 9999 NCD 08/03 Q1025 BLU
11:25
V
6 °C 10 km+ - 020° 020° 11 kt METAR EHDL 210925Z AUTO 02011KT 9999 FEW019 SCT022 06/02 Q1025 WHT
10:55
M
6 °C 10 km+ 2.000 ft 050° 050° 11 kt METAR EHDL 210855Z AUTO 05011KT 280V080 9999 SCT017 BKN020 BKN027 06/03 Q1024 WHT
10:25
M
5 °C 10 km+ 2.000 ft 030° 030° 10 kt METAR EHDL 210825Z AUTO 03010KT 320V110 9999 SCT016 BKN020 BKN023 05/02 Q1024 WHT
09:55
M
5 °C 10 km+ 1.500 ft 030° 030° 10 kt METAR EHDL 210755Z AUTO 03010KT 300V110 9999 FEW012 BKN015 05/03 Q1023 WHT
09:25
M
4 °C 10 km+ 1.500 ft 040° 040° 9 kt METAR EHDL 210725Z AUTO 04009KT 9999 FEW010 OVC015 04/02 Q1023 WHT
08:55
M
4 °C 10 km+ 1.400 ft 040° 040° 12 kt METAR EHDL 210655Z AUTO 04012KT 330V120 9999 FEW009 SCT011 BKN014 04/02 Q1022 GRN
08:25
M
4 °C 10 km+ 1.000 ft 040° 040° 13 kt METAR EHDL 210625Z AUTO 04013KT 340V100 9999 FEW009 OVC010 04/02 Q1022 GRN
07:55
M
3 °C 10 km+ 1.600 ft 030° 030° 11 kt METAR EHDL 210555Z AUTO 03011KT 280V080 9999 FEW008 SCT014 OVC016 03/03 Q1021 GRN
07:25
M
3 °C 10 km+ 1.000 ft 020° 020° 8 kt METAR EHDL 210525Z AUTO 02008KT 320V070 9999 FEW007 SCT009 BKN010 03/02 Q1020 GRN
06:55
M
3 °C 10 km+ 2.400 ft 350° 350° 6 kt METAR EHDL 210455Z AUTO 35006KT 320V030 9999 FEW010 SCT020 OVC024 03/02 Q1020 WHT
06:25
M
3 °C 10 km+ 1.600 ft 320° 320° 5 kt METAR EHDL 210425Z AUTO 32005KT 290V010 9999 FEW008 SCT009 BKN016 03/02 Q1019 GRN
05:55
M
3 °C 10 km+ 1.100 ft 310° 310° 6 kt METAR EHDL 210355Z AUTO 31006KT 260V360 9999 -RA FEW009 BKN011 BKN013 03/02 Q1019 GRN
05:25
M
3 °C 10 km+ 1.300 ft 280° 280° 11 kt METAR EHDL 210325Z AUTO 28011KT 9999 SCT010 BKN013 FEW015CB OVC016 03/02 Q1019 RESN GRN
04:55
I
2 °C 4,9 km 2.000 ft 250° 250° 6 kt METAR EHDL 210255Z AUTO 25006KT 190V340 4900 -SHRA SCT015CB SCT016 BKN020 OVC023 02/01 Q1019 REDZ GRN
04:25
V
1 °C 10 km+ 8.600 ft 250° 250° 6 kt METAR EHDL 210225Z AUTO 25006KT 170V280 9999 FEW015CB SCT076 BKN086 01/01 Q1020 BLU
03:55
V
1 °C 10 km+ - 250° 250° 5 kt METAR EHDL 210155Z AUTO 25005KT 230V300 9999 FEW038 SCT120 01/01 Q1020 BLU
03:25
V
2 °C 10 km+ - 280° 280° 6 kt METAR EHDL 210125Z AUTO 28006KT 240V340 9999 FEW015CB 02/01 Q1021 BLU
02:55
V
2 °C 10 km+ - 300° 300° 5 kt METAR EHDL 210055Z AUTO 30005KT 270V350 9999 FEW015CB SCT056 02/01 Q1021 RESNRA BLU
02:25
I
3 °C 2,2 km 1.500 ft 310° 310° 9 - 23 kt METAR EHDL 210025Z AUTO 31009G23KT 260V010 2200 SHRA FEW007 BKN015CB BKN018 03/02 Q1022 YLO
01:55
M
3 °C 10 km+ 1.700 ft 340° 340° 10 kt METAR EHDL 202355Z AUTO 34010KT 280V030 9999 -SHRA FEW011 SCT014 FEW015CB BKN017 03/02 Q1022 REDZ GRN
01:25
M
3 °C 10 km+ 3.000 ft 270° 270° 5 kt METAR EHDL 202325Z AUTO 27005KT 250V330 9999 BKN030 BKN063 03/02 Q1022 BLU
00:55
V
4 °C 10 km+ 4.500 ft 290° 290° 5 kt METAR EHDL 202255Z AUTO 29005KT 250V340 9999 FEW022 BKN045 OVC062 04/02 Q1022 BLU
00:25
V
4 °C 10 km+ 3.700 ft 320° 320° 8 kt METAR EHDL 202225Z AUTO 32008KT 300V030 9999 -UP FEW014 SCT024 BKN037 04/02 Q1022 WHT

2024年4月20日

时间 代码 天气 温度 能见度 天花板 METAR/SPECI
23:55
V
4 °C 10 km+ 5.200 ft 320° 320° 6 kt METAR EHDL 202155Z AUTO 32006KT 260V020 9999 OVC052 04/02 Q1022 BLU
23:25
V
5 °C 10 km+ 5.500 ft 320° 320° 6 kt METAR EHDL 202125Z AUTO 32006KT 300V020 9999 BKN055 05/02 Q1022 BLU
22:55
V
5 °C 10 km+ 5.600 ft 330° 330° 7 kt METAR EHDL 202055Z AUTO 33007KT 310V020 9999 SCT034 SCT039 BKN056 05/02 Q1022 BLU
22:25
V
5 °C 10 km+ 5.100 ft 340° 340° 7 kt METAR EHDL 202025Z AUTO 34007KT 300V020 9999 BKN051 05/02 Q1022 BLU
21:55
V
5 °C 10 km+ 4.900 ft 340° 340° 9 kt METAR EHDL 201955Z AUTO 34009KT 300V030 9999 OVC049 05/02 Q1022 BLU
21:25
M
6 °C 10 km+ 2.600 ft 350° 350° 11 kt METAR EHDL 201925Z AUTO 35011KT 290V060 9999 SCT018 BKN026 BKN030 06/03 Q1022 WHT
20:55
V
6 °C 10 km+ 4.400 ft 350° 350° 10 kt METAR EHDL 201855Z AUTO 35010KT 280V050 9999 FEW037 BKN044 BKN051 06/04 Q1022 BLU
20:25
M
6 °C 10 km+ 2.900 ft 340° 340° 16 kt METAR EHDL 201825Z AUTO 34016KT 300V050 9999 -RA FEW008 SCT016 BKN029 06/04 Q1022 RERA REDZ WHT
19:55
M
7 °C 10 km+ 2.700 ft 320° 320° 10 kt METAR EHDL 201755Z AUTO 32010KT 290V030 9999 SCT018 BKN027 07/05 Q1021 REDZ WHT
19:25
V
8 °C 10 km+ 6.400 ft 330° 330° 12 kt METAR EHDL 201725Z AUTO 33012KT 290V040 9999 SCT055 OVC064 08/04 Q1021 BLU
18:55
M
8 °C 10 km+ 2.800 ft 340° 340° 14 - 25 kt METAR EHDL 201655Z AUTO 34014G25KT 290V060 9999 SCT024 BKN028 BKN033 08/05 Q1021 WHT
18:25
V
8 °C 10 km+ 4.100 ft 360° 360° 15 kt METAR EHDL 201625Z AUTO 36015KT 310V060 9999 FEW025 SCT036 BKN041 08/05 Q1021 BLU
17:55
M
9 °C 10 km+ 2.600 ft 330° 330° 14 kt METAR EHDL 201555Z AUTO 33014KT 280V050 9999 BKN026 OVC030 09/03 Q1020 BLU
17:25
V
9 °C 10 km+ 3.300 ft 340° 340° 12 kt METAR EHDL 201525Z AUTO 34012KT 290V030 9999 RA FEW022 SCT025 BKN033 09/06 Q1020 BLU
16:55
V
10 °C 10 km+ 4.500 ft 310° 310° 10 kt METAR EHDL 201455Z AUTO 31010KT 240V030 9999 SCT039 BKN045 OVC053 10/06 Q1020 REDZ BLU
16:25
M
9 °C 10 km+ 2.600 ft 310° 310° 13 kt METAR EHDL 201425Z AUTO 31013KT 240V050 9999 -RA SCT019 SCT022 BKN026 09/05 Q1021 WHT
15:55
M
9 °C 10 km+ 2.600 ft 300° 300° 14 kt METAR EHDL 201355Z AUTO 30014KT 230V020 9999 SCT019 BKN026 BKN029 09/05 Q1021 WHT
15:25
V
8 °C 10 km+ 3.100 ft 310° 310° 15 - 27 kt METAR EHDL 201325Z AUTO 31015G27KT 250V020 9999 -RA FEW022 SCT028 BKN031 08/05 Q1021 BLU
14:55
V
11 °C 10 km+ - 290° 290° 11 kt METAR EHDL 201255Z AUTO 29011KT 240V010 9999 FEW017 SCT023 11/06 Q1021 REDZ WHT
14:25
M
8 °C 10 km+ 3.000 ft 300° 300° 8 kt METAR EHDL 201225Z AUTO 30008KT 250V030 9999 -RA FEW023 SCT027 BKN030 08/05 Q1021 BLU
13:55
V
7 °C 10 km+ 3.500 ft 320° 320° 9 kt METAR EHDL 201155Z AUTO 32009KT 260V010 9999 -DZ SCT020 BKN035 OVC044 07/05 Q1021 WHT
13:25
M
7 °C 10 km+ 2.500 ft 330° 330° 12 kt METAR EHDL 201125Z AUTO 33012KT 270V030 9999 FEW012 BKN025 BKN029 07/05 Q1021 BLU
12:55
M
8 °C 10 km+ 1.900 ft 320° 320° 11 kt METAR EHDL 201055Z AUTO 32011KT 300V040 9999 SCT016 BKN019 OVC023 08/05 Q1021 WHT
12:25
M
7 °C 10 km+ 2.200 ft 320° 320° 15 - 25 kt METAR EHDL 201025Z AUTO 32015G25KT 270V020 9999 -RA SCT017 BKN022 BKN026 07/04 Q1021 WHT
11:55
V
7 °C 10 km+ 6.500 ft 320° 320° 7 kt METAR EHDL 200955Z AUTO 32007KT 260V050 9999 SCT059 BKN065 OVC071 07/05 Q1021 BLU
11:25
M
7 °C 10 km+ 2.800 ft 320° 320° 12 - 24 kt METAR EHDL 200925Z AUTO 32012G24KT 260V020 9999 FEW024 BKN028 BKN034 07/05 Q1021 BLU
10:55
V
6 °C 10 km+ 3.800 ft 330° 330° 14 kt METAR EHDL 200855Z AUTO 33014KT 250V060 9999 -RA FEW013 SCT026 BKN038 06/04 Q1021 BLU
10:25
M
6 °C 10 km+ 1.700 ft 330° 330° 7 kt METAR EHDL 200825Z AUTO 33007KT 270V050 9999 -RA FEW012 SCT014 BKN017 06/04 Q1020 GRN
09:55
V
7 °C 10 km+ 6.000 ft 330° 330° 9 kt METAR EHDL 200755Z AUTO 33009KT 270V030 9999 SCT045 BKN060 OVC065 07/05 Q1020 BLU
09:25
V
5 °C 10 km+ 4.400 ft 320° 320° 9 kt METAR EHDL 200725Z AUTO 32009KT 270V010 9999 FEW025 SCT029 BKN044 05/04 Q1020 REDZ BLU
08:55
M
6 °C 10 km+ 1.600 ft 300° 300° 7 kt METAR EHDL 200655Z AUTO 30007KT 260V010 9999 DZRA FEW008 FEW015CB BKN016 OVC020 06/04 Q1019 WHT
08:25
V
5 °C 10 km+ 4.500 ft 310° 310° 6 kt METAR EHDL 200625Z AUTO 31006KT 270V010 9999 BKN045 OVC050 05/04 Q1019 REDZ BLU
07:55
M
5 °C 10 km+ 2.100 ft 320° 320° 8 kt METAR EHDL 200555Z AUTO 32008KT 280V020 9999 -RA FEW010 SCT016 OVC021 05/04 Q1019 WHT
报告变更